AAL69 KSAN-KLAX
Flight info
| Callsign | AAL69 |
|---|---|
| Flight time | 0h 26m |
| Altitude | 10000 |
| Route | CWARD2 SLI |
| Aircraft | A320/M-SDE3FGHIRWY/LB1 |
Departure
| Time | 2026-04-26 21:50 |
|---|---|
| Airport | San Diego International Airport (KSAN) |
Arrival
| Time | 2026-04-26 22:17 |
|---|---|
| Airport | Los Angeles International Airport (KLAX) |
| Time | Latitude | Longitude | Altitude | Speed | Heading |
|---|---|---|---|---|---|
| 2026-04-26 21:35 | 32.73382 | -117.19860 | 26 ft | 0 kts | 179° |
| 2026-04-26 21:43 | 32.73384 | -117.19860 | 23 ft | 1 kts | 179° |
| 2026-04-26 21:43 | 32.73402 | -117.19860 | 24 ft | 3 kts | 178° |
| 2026-04-26 21:43 | 32.73422 | -117.19861 | 24 ft | 3 kts | 176° |
| 2026-04-26 21:44 | 32.73442 | -117.19863 | 24 ft | 3 kts | 177° |
| 2026-04-26 21:44 | 32.73461 | -117.19866 | 26 ft | 3 kts | 151° |
| 2026-04-26 21:44 | 32.73473 | -117.19880 | 25 ft | 2 kts | 108° |
| 2026-04-26 21:44 | 32.73478 | -117.19897 | 25 ft | 2 kts | 106° |
| 2026-04-26 21:45 | 32.73479 | -117.19903 | 25 ft | 0 kts | 106° |
| 2026-04-26 21:47 | 32.73462 | -117.19830 | 23 ft | 17 kts | 106° |
| 2026-04-26 21:47 | 32.73427 | -117.19686 | 24 ft | 19 kts | 106° |
| 2026-04-26 21:47 | 32.73387 | -117.19523 | 25 ft | 22 kts | 106° |
| 2026-04-26 21:47 | 32.73343 | -117.19344 | 24 ft | 24 kts | 106° |
| 2026-04-26 21:48 | 32.73294 | -117.19140 | 23 ft | 27 kts | 105° |
| 2026-04-26 21:48 | 32.73242 | -117.18918 | 24 ft | 29 kts | 105° |
| 2026-04-26 21:48 | 32.73183 | -117.18675 | 24 ft | 32 kts | 106° |
| 2026-04-26 21:48 | 32.73120 | -117.18412 | 24 ft | 34 kts | 105° |
| 2026-04-26 21:49 | 32.73052 | -117.18131 | 23 ft | 37 kts | 106° |
| 2026-04-26 21:49 | 32.72985 | -117.17862 | 24 ft | 26 kts | 107° |
| 2026-04-26 21:49 | 32.72966 | -117.17677 | 24 ft | 17 kts | 65° |
| 2026-04-26 21:49 | 32.73032 | -117.17643 | 24 ft | 10 kts | 317° |
| 2026-04-26 21:50 | 32.73113 | -117.17949 | 24 ft | 75 kts | 286° |
| 2026-04-26 21:50 | 32.73236 | -117.18455 | 26 ft | 116 kts | 285° |
| 2026-04-26 21:50 | 32.73599 | -117.19938 | 338 ft | 155 kts | 287° |
| 2026-04-26 21:50 | 32.73959 | -117.21142 | 1078 ft | 154 kts | 297° |
| 2026-04-26 21:51 | 32.74517 | -117.22221 | 1763 ft | 154 kts | 302° |
| 2026-04-26 21:51 | 32.75149 | -117.23336 | 2122 ft | 173 kts | 302° |
| 2026-04-26 21:51 | 32.75873 | -117.24612 | 2452 ft | 199 kts | 302° |
| 2026-04-26 21:51 | 32.76690 | -117.26057 | 2936 ft | 223 kts | 302° |
| 2026-04-26 21:52 | 32.77590 | -117.27656 | 3475 ft | 244 kts | 302° |
| 2026-04-26 21:52 | 32.78550 | -117.29367 | 4366 ft | 250 kts | 302° |
| 2026-04-26 21:52 | 32.79511 | -117.31088 | 5384 ft | 254 kts | 302° |
| 2026-04-26 21:52 | 32.80530 | -117.32829 | 6506 ft | 258 kts | 304° |
| 2026-04-26 21:53 | 32.81620 | -117.34543 | 7579 ft | 260 kts | 305° |
| 2026-04-26 21:53 | 32.82741 | -117.36251 | 8647 ft | 262 kts | 305° |
| 2026-04-26 21:53 | 32.83858 | -117.37949 | 9544 ft | 267 kts | 305° |
| 2026-04-26 21:53 | 32.85001 | -117.39693 | 9876 ft | 266 kts | 305° |
| 2026-04-26 21:54 | 32.86141 | -117.41442 | 9972 ft | 265 kts | 305° |
| 2026-04-26 21:54 | 32.87251 | -117.43156 | 9989 ft | 265 kts | 304° |
| 2026-04-26 21:54 | 32.88375 | -117.44901 | 9984 ft | 264 kts | 304° |
| 2026-04-26 21:54 | 32.89496 | -117.46645 | 9979 ft | 264 kts | 304° |
| 2026-04-26 21:55 | 32.90618 | -117.48388 | 9971 ft | 265 kts | 304° |
| 2026-04-26 21:55 | 32.91734 | -117.50116 | 9972 ft | 267 kts | 304° |
| 2026-04-26 21:55 | 32.92869 | -117.51875 | 9971 ft | 267 kts | 304° |
| 2026-04-26 21:55 | 32.93997 | -117.53632 | 9969 ft | 267 kts | 304° |
| 2026-04-26 21:56 | 32.95121 | -117.55389 | 9974 ft | 267 kts | 304° |
| 2026-04-26 21:56 | 32.96251 | -117.57155 | 9972 ft | 267 kts | 304° |
| 2026-04-26 21:56 | 32.97377 | -117.58910 | 9975 ft | 267 kts | 304° |
| 2026-04-26 21:56 | 32.98496 | -117.60650 | 9968 ft | 267 kts | 304° |
| 2026-04-26 21:57 | 32.99629 | -117.62416 | 9970 ft | 268 kts | 304° |
| 2026-04-26 21:57 | 33.00761 | -117.64181 | 9986 ft | 268 kts | 304° |
| 2026-04-26 21:57 | 33.01890 | -117.65946 | 9984 ft | 268 kts | 304° |
| 2026-04-26 21:57 | 33.03020 | -117.67709 | 9985 ft | 267 kts | 304° |
| 2026-04-26 21:58 | 33.04131 | -117.69446 | 9985 ft | 266 kts | 304° |
| 2026-04-26 21:58 | 33.05253 | -117.71208 | 9986 ft | 266 kts | 304° |
| 2026-04-26 21:58 | 33.06413 | -117.72938 | 9979 ft | 268 kts | 310° |
| 2026-04-26 21:58 | 33.07811 | -117.74423 | 9980 ft | 269 kts | 316° |
| 2026-04-26 21:59 | 33.09241 | -117.75874 | 9980 ft | 269 kts | 315° |
| 2026-04-26 21:59 | 33.10673 | -117.77321 | 9976 ft | 269 kts | 316° |
| 2026-04-26 21:59 | 33.12085 | -117.78750 | 9976 ft | 269 kts | 315° |
| 2026-04-26 21:59 | 33.13515 | -117.80202 | 9980 ft | 269 kts | 315° |
| 2026-04-26 22:00 | 33.14945 | -117.81657 | 9981 ft | 270 kts | 315° |
| 2026-04-26 22:00 | 33.16377 | -117.83116 | 9980 ft | 270 kts | 315° |
| 2026-04-26 22:00 | 33.17808 | -117.84574 | 9978 ft | 270 kts | 315° |
| 2026-04-26 22:00 | 33.19357 | -117.85868 | 9975 ft | 274 kts | 328° |
| 2026-04-26 22:01 | 33.21146 | -117.86638 | 9982 ft | 280 kts | 342° |
| 2026-04-26 22:01 | 33.23056 | -117.87106 | 9983 ft | 280 kts | 342° |
| 2026-04-26 22:01 | 33.24975 | -117.87576 | 9982 ft | 280 kts | 342° |
| 2026-04-26 22:01 | 33.26872 | -117.88046 | 9981 ft | 281 kts | 342° |
| 2026-04-26 22:02 | 33.28787 | -117.88523 | 9977 ft | 281 kts | 342° |
| 2026-04-26 22:02 | 33.30056 | -117.88841 | 9977 ft | 281 kts | 342° |
| 2026-04-26 22:02 | 33.32625 | -117.89485 | 9979 ft | 281 kts | 342° |
| 2026-04-26 22:02 | 33.34517 | -117.89959 | 9978 ft | 281 kts | 342° |
| 2026-04-26 22:03 | 33.36439 | -117.90439 | 9982 ft | 281 kts | 342° |
| 2026-04-26 22:03 | 33.38355 | -117.90922 | 9982 ft | 280 kts | 340° |
| 2026-04-26 22:03 | 33.40214 | -117.91584 | 9985 ft | 278 kts | 337° |
| 2026-04-26 22:03 | 33.42070 | -117.92260 | 9993 ft | 278 kts | 337° |
| 2026-04-26 22:04 | 33.43902 | -117.92926 | 9996 ft | 278 kts | 337° |
| 2026-04-26 22:04 | 33.45761 | -117.93601 | 9998 ft | 280 kts | 336° |
| 2026-04-26 22:04 | 33.47635 | -117.94282 | 10002 ft | 281 kts | 336° |
| 2026-04-26 22:04 | 33.49484 | -117.94953 | 9971 ft | 278 kts | 337° |
| 2026-04-26 22:05 | 33.51326 | -117.95619 | 9967 ft | 276 kts | 337° |
| 2026-04-26 22:05 | 33.53164 | -117.96284 | 9965 ft | 276 kts | 337° |
| 2026-04-26 22:05 | 33.55007 | -117.96955 | 9967 ft | 276 kts | 337° |
| 2026-04-26 22:05 | 33.56847 | -117.97627 | 9969 ft | 276 kts | 337° |
| 2026-04-26 22:06 | 33.58689 | -117.98301 | 9970 ft | 276 kts | 337° |
| 2026-04-26 22:06 | 33.60523 | -117.98970 | 9854 ft | 275 kts | 337° |
| 2026-04-26 22:06 | 33.61739 | -117.99412 | 9763 ft | 275 kts | 337° |
| 2026-04-26 22:06 | 33.64164 | -118.00295 | 9596 ft | 275 kts | 337° |
| 2026-04-26 22:07 | 33.66004 | -118.00966 | 9463 ft | 276 kts | 337° |
| 2026-04-26 22:07 | 33.67221 | -118.01410 | 9375 ft | 276 kts | 337° |
| 2026-04-26 22:07 | 33.69056 | -118.02080 | 9123 ft | 274 kts | 337° |
| 2026-04-26 22:07 | 33.70879 | -118.02747 | 8752 ft | 273 kts | 338° |
| 2026-04-26 22:08 | 33.72700 | -118.03412 | 8387 ft | 272 kts | 338° |
| 2026-04-26 22:08 | 33.74488 | -118.04064 | 8027 ft | 271 kts | 338° |
| 2026-04-26 22:08 | 33.76292 | -118.04724 | 7642 ft | 270 kts | 338° |
| 2026-04-26 22:08 | 33.78098 | -118.05363 | 7330 ft | 270 kts | 343° |
| 2026-04-26 22:09 | 33.79992 | -118.05366 | 6999 ft | 277 kts | 6° |
| 2026-04-26 22:09 | 33.81854 | -118.04813 | 6648 ft | 278 kts | 11° |
| 2026-04-26 22:09 | 33.83719 | -118.04202 | 6310 ft | 277 kts | 11° |
| 2026-04-26 22:09 | 33.85571 | -118.03587 | 5850 ft | 274 kts | 11° |
| 2026-04-26 22:10 | 33.87410 | -118.02988 | 5183 ft | 274 kts | 11° |
| 2026-04-26 22:10 | 33.89265 | -118.02389 | 4612 ft | 277 kts | 10° |
| 2026-04-26 22:10 | 33.91144 | -118.02206 | 4273 ft | 267 kts | 347° |
| 2026-04-26 22:10 | 33.92905 | -118.02817 | 3910 ft | 261 kts | 331° |
| 2026-04-26 22:11 | 33.94391 | -118.03963 | 3638 ft | 252 kts | 314° |
| 2026-04-26 22:11 | 33.95529 | -118.05537 | 3580 ft | 247 kts | 298° |
| 2026-04-26 22:11 | 33.96262 | -118.07392 | 3569 ft | 241 kts | 285° |
| 2026-04-26 22:11 | 33.96556 | -118.09304 | 3579 ft | 225 kts | 271° |
| 2026-04-26 22:12 | 33.96463 | -118.11172 | 3592 ft | 224 kts | 262° |
| 2026-04-26 22:12 | 33.96277 | -118.13035 | 3584 ft | 229 kts | 263° |
| 2026-04-26 22:12 | 33.96087 | -118.14952 | 3578 ft | 231 kts | 263° |
| 2026-04-26 22:12 | 33.95897 | -118.16857 | 3539 ft | 223 kts | 263° |
| 2026-04-26 22:13 | 33.95714 | -118.18688 | 3355 ft | 217 kts | 263° |
| 2026-04-26 22:13 | 33.95534 | -118.20488 | 3085 ft | 215 kts | 263° |
| 2026-04-26 22:13 | 33.95357 | -118.22248 | 2807 ft | 212 kts | 263° |
| 2026-04-26 22:13 | 33.95180 | -118.24009 | 2523 ft | 211 kts | 262° |
| 2026-04-26 22:14 | 33.95003 | -118.25760 | 2234 ft | 208 kts | 263° |
| 2026-04-26 22:14 | 33.94835 | -118.27430 | 1966 ft | 193 kts | 263° |
| 2026-04-26 22:14 | 33.94678 | -118.28982 | 1725 ft | 177 kts | 262° |
| 2026-04-26 22:14 | 33.94539 | -118.30368 | 1492 ft | 159 kts | 262° |
| 2026-04-26 22:15 | 33.94418 | -118.31565 | 1297 ft | 133 kts | 260° |
| 2026-04-26 22:15 | 33.94310 | -118.32635 | 1116 ft | 124 kts | 261° |
| 2026-04-26 22:15 | 33.94205 | -118.33660 | 939 ft | 122 kts | 261° |
| 2026-04-26 22:15 | 33.94101 | -118.34683 | 754 ft | 124 kts | 263° |
| 2026-04-26 22:16 | 33.93997 | -118.35705 | 593 ft | 122 kts | 261° |
| 2026-04-26 22:16 | 33.93896 | -118.36697 | 415 ft | 120 kts | 263° |
| 2026-04-26 22:16 | 33.93794 | -118.37701 | 254 ft | 120 kts | 258° |
| 2026-04-26 22:16 | 33.93698 | -118.38685 | 111 ft | 110 kts | 258° |
| 2026-04-26 22:17 | 33.93615 | -118.39469 | 94 ft | 72 kts | 263° |
| 2026-04-26 22:17 | 33.93571 | -118.39910 | 95 ft | 44 kts | 264° |
| 2026-04-26 22:17 | 33.93591 | -118.40252 | 95 ft | 39 kts | 286° |
| 2026-04-26 22:17 | 33.93624 | -118.40409 | 97 ft | 19 kts | 272° |
| 2026-04-26 22:18 | 33.93603 | -118.40660 | 95 ft | 34 kts | 262° |
| 2026-04-26 22:18 | 33.93603 | -118.40823 | 95 ft | 17 kts | 288° |
| 2026-04-26 22:18 | 33.93697 | -118.40902 | 98 ft | 19 kts | 352° |
| 2026-04-26 22:18 | 33.93789 | -118.40863 | 94 ft | 14 kts | 63° |
| 2026-04-26 22:19 | 33.93831 | -118.40753 | 94 ft | 17 kts | 27° |
| 2026-04-26 22:19 | 33.93927 | -118.40688 | 95 ft | 14 kts | 9° |